New Richmond, WI

06:02 PM CST del 08 Dicembre 2016 (GMT -0600)
Country View Ridge | | Change Station

Alt. 971 ft 45.10 °N, 92.60 °W | Updated 14 seconds ago

Light Snow
Neve debole
22.1 °F
Sembra 12 °F
N
8.7
Vento Variabile Vento da Ovest
Gusts 9.8 mph

Oggi
Massima -- | Minima -- °F
--% Possibilità di precip.
Ieri
Massima -- | Minima -- °F
Precip. -- in
Pressione 30.42 in
Visibilità 10.0 miglia
Nuvole Coperto 3400 ft
Raffreddamento del vento 12 °F
Punto di rugiada 4 °F
Umidità 44%
Piovosità 0.00 in
Spessore del manto nevoso Non disponibile.
7:36 AM 4:28 PM
Gobba a ponente, 68% visible
METAR KRNH 082335Z AUTO 30010KT 10SM -SN OVC034 M06/M10 A3042 RMK AO2 T10561098
Pressione 30.42 in
Visibilità 10.0 miglia
Nuvole Coperto 3400 ft
Raffreddamento del vento 12 °F
Punto di rugiada 4 °F
Umidità 44%
Piovosità 0.00 in
Spessore del manto nevoso Non disponibile.
7:36 AM 4:28 PM
Gobba a ponente, 68% visible
METAR KRNH 082335Z AUTO 30010KT 10SM -SN OVC034 M06/M10 A3042 RMK AO2 T10561098

10-Day Weather Forecast

Almanac

Astronomia

Dec. 08, 2016 Alba Tramonto
Ora attuale
Crepuscolo civile
Crepuscolo nautico
Crepuscolo astronomico
Luna
Estensione della luce visibile
Lunghezza del giorno
Tomorrow will be .
, % of the Moon is Illuminated

Gli estremi di oggi

State Highs State Lows

Community

WunderPhotos

Upload Photos

1,956,277 foto caricate!

WunderBlog® & News

Nearby

Qualità dell'aria

  Qualità dell'aria Indice AQ Inquinante
Not available.

Profondità neve

Stazione Profondità Altitudine

Attività sismica

Città  Distanza Mag. Data & Ora
Minimo Magnitudo Mostrato è 2.5.

Temperature delle acque costiere

Località Temperatura

Stations

Stazioni meteo nelle vicinanze

Ubicazione della stazione Temp. Raffreddamento del vento Punto di rugiada Umidità Vento Precip. Alt. Aggiornato Tipo
                   

Watches & Warnings

There are currently no watches in effect.